Terminal Aerodrome Forecast
Issued by NWS

Home | Current Version | Previous Version | Text Only | Print | Product List | Glossary On
Versions: 1 2 3 4 5 6 7 8 9 10 11 12 13 14 15 16 17 18 19 20 21 22 23 24 25 26 27
000
FTUS43 KAPX 250520
TAFTVC
TAF
KTVC 250520Z 2506/2606 VRB03KT 2SM -DZ BR OVC005
     FM251000 33010G20KT 2SM -FZDZ BR OVC008
     FM251300 31011G20KT 1 1/2SM -SHSN BLSN OVC015
     FM252100 29016G26KT 4SM -SHSN BLSN OVC020
     FM252200 29015G25KT P6SM -SHSN OVC030
     FM260000 29011G24KT P6SM BKN030
     FM260500 28009KT P6SM BKN250=

USA.gov is the U.S. government's official web portal to all federal, state and local government web resources and services.